sensor_id;sensor_type;location;lat;lon;timestamp;pressure;altitude;pressure_sealevel;temperature;humidity
75401;BME280;63974;47.538;18.972;2023-03-01T00:02:06;101262.00;;;2.49;84.15
75401;BME280;63974;47.538;18.972;2023-03-01T00:05:09;101255.41;;;2.45;84.07
75401;BME280;63974;47.538;18.972;2023-03-01T00:08:12;101261.09;;;2.36;84.45
75401;BME280;63974;47.538;18.972;2023-03-01T00:11:20;101253.25;;;2.39;84.53
75401;BME280;63974;47.538;18.972;2023-03-01T00:14:23;101255.53;;;2.43;84.13
75401;BME280;63974;47.538;18.972;2023-03-01T00:17:27;101255.91;;;2.37;84.46
75401;BME280;63974;47.538;18.972;2023-03-01T00:20:31;101255.53;;;2.43;84.28
75401;BME280;63974;47.538;18.972;2023-03-01T00:23:35;101261.66;;;2.41;84.73
75401;BME280;63974;47.538;18.972;2023-03-01T00:26:38;101258.97;;;2.42;84.77
75401;BME280;63974;47.538;18.972;2023-03-01T00:29:42;101255.63;;;2.42;84.50
75401;BME280;63974;47.538;18.972;2023-03-01T00:32:45;101253.72;;;2.31;84.84
75401;BME280;63974;47.538;18.972;2023-03-01T00:35:48;101246.03;;;2.31;85.04
75401;BME280;63974;47.538;18.972;2023-03-01T00:38:51;101246.47;;;2.38;84.94
75401;BME280;63974;47.538;18.972;2023-03-01T00:41:54;101251.97;;;2.32;85.13
75401;BME280;63974;47.538;18.972;2023-03-01T00:44:58;101243.06;;;2.37;84.85
75401;BME280;63974;47.538;18.972;2023-03-01T00:48:01;101238.44;;;2.30;84.91
75401;BME280;63974;47.538;18.972;2023-03-01T00:51:13;101233.66;;;2.24;85.09
75401;BME280;63974;47.538;18.972;2023-03-01T00:54:16;101230.81;;;2.28;85.51
75401;BME280;63974;47.538;18.972;2023-03-01T00:57:19;101230.75;;;2.30;85.48
75401;BME280;63974;47.538;18.972;2023-03-01T01:00:22;101228.91;;;2.32;85.64
75401;BME280;63974;47.538;18.972;2023-03-01T01:03:25;101215.16;;;2.33;85.44
75401;BME280;63974;47.538;18.972;2023-03-01T01:06:34;101218.28;;;2.38;85.33
75401;BME280;63974;47.538;18.972;2023-03-01T01:09:37;101221.03;;;2.35;85.81
75401;BME280;63974;47.538;18.972;2023-03-01T01:12:40;101204.19;;;2.31;85.94
75401;BME280;63974;47.538;18.972;2023-03-01T01:15:43;101212.97;;;2.41;85.43
75401;BME280;63974;47.538;18.972;2023-03-01T01:18:46;101206.69;;;2.18;85.93
75401;BME280;63974;47.538;18.972;2023-03-01T01:21:49;101201.72;;;2.29;85.96
75401;BME280;63974;47.538;18.972;2023-03-01T01:24:53;101203.84;;;2.23;86.23
75401;BME280;63974;47.538;18.972;2023-03-01T01:27:56;101192.66;;;2.24;86.57
75401;BME280;63974;47.538;18.972;2023-03-01T01:30:59;101188.28;;;2.26;86.52
75401;BME280;63974;47.538;18.972;2023-03-01T01:34:04;101180.78;;;2.23;87.13
75401;BME280;63974;47.538;18.972;2023-03-01T01:37:07;101182.41;;;2.24;86.82
75401;BME280;63974;47.538;18.972;2023-03-01T01:40:11;101173.66;;;2.28;86.41
75401;BME280;63974;47.538;18.972;2023-03-01T01:43:19;101181.06;;;2.32;86.43
75401;BME280;63974;47.538;18.972;2023-03-01T01:46:30;101176.94;;;2.30;86.37
75401;BME280;63974;47.538;18.972;2023-03-01T01:49:47;101178.56;;;2.31;86.27
75401;BME280;63974;47.538;18.972;2023-03-01T01:52:52;101170.88;;;2.31;86.64
75401;BME280;63974;47.538;18.972;2023-03-01T01:55:58;101177.72;;;2.44;86.30
75401;BME280;63974;47.538;18.972;2023-03-01T01:59:03;101174.31;;;2.44;85.72
75401;BME280;63974;47.538;18.972;2023-03-01T02:02:06;101174.44;;;2.28;86.24
75401;BME280;63974;47.538;18.972;2023-03-01T02:05:14;101182.34;;;2.25;87.06
75401;BME280;63974;47.538;18.972;2023-03-01T02:08:23;101178.66;;;2.29;86.86
75401;BME280;63974;47.538;18.972;2023-03-01T02:11:29;101176.97;;;2.42;86.67
75401;BME280;63974;47.538;18.972;2023-03-01T02:14:32;101169.50;;;2.39;86.28
75401;BME280;63974;47.538;18.972;2023-03-01T02:17:35;101169.13;;;2.45;86.12
75401;BME280;63974;47.538;18.972;2023-03-01T02:24:40;101164.38;;;2.39;86.56
75401;BME280;63974;47.538;18.972;2023-03-01T02:31:20;101158.44;;;2.39;86.53
75401;BME280;63974;47.538;18.972;2023-03-01T02:34:42;101146.34;;;2.41;86.40
75401;BME280;63974;47.538;18.972;2023-03-01T02:37:46;101145.22;;;2.45;86.21
75401;BME280;63974;47.538;18.972;2023-03-01T02:40:51;101152.53;;;2.51;86.30
75401;BME280;63974;47.538;18.972;2023-03-01T02:43:55;101152.19;;;2.43;86.48
75401;BME280;63974;47.538;18.972;2023-03-01T02:47:02;101136.81;;;2.43;86.19
75401;BME280;63974;47.538;18.972;2023-03-01T02:51:01;101142.13;;;2.40;86.41
75401;BME280;63974;47.538;18.972;2023-03-01T02:56:52;101145.78;;;2.50;86.58
75401;BME280;63974;47.538;18.972;2023-03-01T03:00:06;101142.28;;;2.51;86.28
75401;BME280;63974;47.538;18.972;2023-03-01T03:03:15;101137.81;;;2.40;86.12
75401;BME280;63974;47.538;18.972;2023-03-01T03:06:18;101137.44;;;2.46;86.55
75401;BME280;63974;47.538;18.972;2023-03-01T03:09:22;101144.28;;;2.46;86.43
75401;BME280;63974;47.538;18.972;2023-03-01T03:12:25;101142.41;;;2.35;87.02
75401;BME280;63974;47.538;18.972;2023-03-01T03:15:28;101131.47;;;2.46;86.79
75401;BME280;63974;47.538;18.972;2023-03-01T03:18:31;101128.53;;;2.52;86.43
75401;BME280;63974;47.538;18.972;2023-03-01T03:21:35;101137.72;;;2.42;86.62
75401;BME280;63974;47.538;18.972;2023-03-01T03:24:38;101126.69;;;2.27;87.65
75401;BME280;63974;47.538;18.972;2023-03-01T03:27:42;101126.66;;;2.41;87.20
75401;BME280;63974;47.538;18.972;2023-03-01T03:30:48;101126.19;;;2.22;87.81
75401;BME280;63974;47.538;18.972;2023-03-01T03:33:52;101118.41;;;2.10;88.18
75401;BME280;63974;47.538;18.972;2023-03-01T03:36:55;101111.78;;;2.08;88.50
75401;BME280;63974;47.538;18.972;2023-03-01T03:40:04;101112.72;;;2.19;88.15
75401;BME280;63974;47.538;18.972;2023-03-01T03:43:21;101100.91;;;1.90;89.10
75401;BME280;63974;47.538;18.972;2023-03-01T03:46:24;101108.13;;;1.98;88.93
75401;BME280;63974;47.538;18.972;2023-03-01T03:49:27;101110.09;;;2.07;89.18
75401;BME280;63974;47.538;18.972;2023-03-01T03:52:30;101109.69;;;2.26;88.39
75401;BME280;63974;47.538;18.972;2023-03-01T03:55:34;101121.41;;;2.16;88.67
75401;BME280;63974;47.538;18.972;2023-03-01T03:58:37;101120.66;;;2.02;89.02
75401;BME280;63974;47.538;18.972;2023-03-01T04:01:40;101117.00;;;2.18;88.23
75401;BME280;63974;47.538;18.972;2023-03-01T04:04:43;101116.72;;;2.23;88.17
75401;BME280;63974;47.538;18.972;2023-03-01T04:07:46;101123.13;;;2.30;88.19
75401;BME280;63974;47.538;18.972;2023-03-01T04:10:51;101124.41;;;2.23;87.84
75401;BME280;63974;47.538;18.972;2023-03-01T04:13:56;101112.00;;;2.17;88.44
75401;BME280;63974;47.538;18.972;2023-03-01T04:17:00;101108.25;;;2.22;88.38
75401;BME280;63974;47.538;18.972;2023-03-01T04:20:03;101108.56;;;2.04;88.87
75401;BME280;63974;47.538;18.972;2023-03-01T04:23:14;101100.47;;;1.84;89.34
75401;BME280;63974;47.538;18.972;2023-03-01T04:26:19;101108.47;;;1.92;89.32
75401;BME280;63974;47.538;18.972;2023-03-01T04:29:22;101103.31;;;1.79;90.13
75401;BME280;63974;47.538;18.972;2023-03-01T04:32:25;101108.44;;;1.79;90.01
75401;BME280;63974;47.538;18.972;2023-03-01T04:35:29;101095.63;;;1.79;90.30
75401;BME280;63974;47.538;18.972;2023-03-01T04:38:32;101086.59;;;2.00;89.48
75401;BME280;63974;47.538;18.972;2023-03-01T04:41:36;101093.47;;;2.00;89.23
75401;BME280;63974;47.538;18.972;2023-03-01T04:44:39;101087.53;;;1.99;89.17
75401;BME280;63974;47.538;18.972;2023-03-01T04:47:43;101085.53;;;2.04;89.24
75401;BME280;63974;47.538;18.972;2023-03-01T04:50:48;101078.13;;;2.26;87.97
75401;BME280;63974;47.538;18.972;2023-03-01T04:53:51;101085.81;;;2.26;88.17
75401;BME280;63974;47.538;18.972;2023-03-01T04:56:54;101094.50;;;2.23;87.92
75401;BME280;63974;47.538;18.972;2023-03-01T04:59:57;101081.50;;;2.26;87.82
75401;BME280;63974;47.538;18.972;2023-03-01T05:03:00;101086.97;;;2.34;87.78
75401;BME280;63974;47.538;18.972;2023-03-01T05:06:03;101079.59;;;2.42;87.54
75401;BME280;63974;47.538;18.972;2023-03-01T05:09:06;101081.34;;;2.42;87.46
75401;BME280;63974;47.538;18.972;2023-03-01T05:12:09;101081.16;;;2.45;87.31
75401;BME280;63974;47.538;18.972;2023-03-01T05:15:12;101085.34;;;2.46;87.22
75401;BME280;63974;47.538;18.972;2023-03-01T05:18:15;101091.88;;;2.37;87.41
75401;BME280;63974;47.538;18.972;2023-03-01T05:21:18;101095.19;;;2.39;87.38
75401;BME280;63974;47.538;18.972;2023-03-01T05:24:21;101081.34;;;2.42;87.18
75401;BME280;63974;47.538;18.972;2023-03-01T05:27:24;101083.06;;;2.41;87.02
75401;BME280;63974;47.538;18.972;2023-03-01T05:30:28;101089.75;;;2.44;87.18
75401;BME280;63974;47.538;18.972;2023-03-01T05:33:31;101096.75;;;2.54;87.06
75401;BME280;63974;47.538;18.972;2023-03-01T05:36:34;101091.94;;;2.50;86.71
75401;BME280;63974;47.538;18.972;2023-03-01T05:39:37;101095.44;;;2.61;86.47
75401;BME280;63974;47.538;18.972;2023-03-01T05:42:39;101082.00;;;2.58;86.52
75401;BME280;63974;47.538;18.972;2023-03-01T05:45:42;101100.56;;;2.61;86.00
75401;BME280;63974;47.538;18.972;2023-03-01T05:48:45;101104.44;;;2.54;86.48
75401;BME280;63974;47.538;18.972;2023-03-01T05:51:51;101110.59;;;2.52;86.29
75401;BME280;63974;47.538;18.972;2023-03-01T05:54:54;101094.81;;;2.45;86.81
75401;BME280;63974;47.538;18.972;2023-03-01T05:57:59;101099.13;;;2.57;86.29
75401;BME280;63974;47.538;18.972;2023-03-01T06:01:03;101097.59;;;2.55;86.38
75401;BME280;63974;47.538;18.972;2023-03-01T06:04:06;101103.06;;;2.63;85.69
75401;BME280;63974;47.538;18.972;2023-03-01T06:07:09;101102.84;;;2.66;85.61
75401;BME280;63974;47.538;18.972;2023-03-01T06:10:13;101102.84;;;2.66;85.72
75401;BME280;63974;47.538;18.972;2023-03-01T06:13:15;101109.09;;;2.62;85.67
75401;BME280;63974;47.538;18.972;2023-03-01T06:16:18;101112.38;;;2.64;85.36
75401;BME280;63974;47.538;18.972;2023-03-01T06:19:21;101107.13;;;2.65;85.29
75401;BME280;63974;47.538;18.972;2023-03-01T06:22:24;101114.66;;;2.68;85.44
75401;BME280;63974;47.538;18.972;2023-03-01T06:25:27;101115.06;;;2.75;85.52
75401;BME280;63974;47.538;18.972;2023-03-01T06:28:30;101114.06;;;2.90;84.83
75401;BME280;63974;47.538;18.972;2023-03-01T06:31:33;101120.53;;;2.95;84.24
75401;BME280;63974;47.538;18.972;2023-03-01T06:34:36;101112.22;;;2.92;83.96
75401;BME280;63974;47.538;18.972;2023-03-01T06:37:40;101117.13;;;2.82;84.85
75401;BME280;63974;47.538;18.972;2023-03-01T06:40:44;101119.09;;;2.91;84.29
75401;BME280;63974;47.538;18.972;2023-03-01T06:43:47;101122.41;;;2.93;84.01
75401;BME280;63974;47.538;18.972;2023-03-01T06:46:50;101127.81;;;3.01;83.78
75401;BME280;63974;47.538;18.972;2023-03-01T06:49:53;101118.59;;;2.99;83.45
75401;BME280;63974;47.538;18.972;2023-03-01T06:52:56;101119.22;;;3.02;83.80
75401;BME280;63974;47.538;18.972;2023-03-01T06:55:59;101125.25;;;3.01;83.97
75401;BME280;63974;47.538;18.972;2023-03-01T06:59:02;101130.94;;;3.06;83.65
75401;BME280;63974;47.538;18.972;2023-03-01T07:02:06;101123.31;;;3.05;83.69
75401;BME280;63974;47.538;18.972;2023-03-01T07:05:09;101121.69;;;3.04;84.25
75401;BME280;63974;47.538;18.972;2023-03-01T07:08:13;101121.78;;;3.02;84.15
75401;BME280;63974;47.538;18.972;2023-03-01T07:11:18;101124.47;;;3.01;83.70
75401;BME280;63974;47.538;18.972;2023-03-01T07:14:21;101116.13;;;3.10;83.72
75401;BME280;63974;47.538;18.972;2023-03-01T07:17:26;101117.88;;;3.09;83.93
75401;BME280;63974;47.538;18.972;2023-03-01T07:20:29;101128.06;;;3.11;84.02
75401;BME280;63974;47.538;18.972;2023-03-01T07:23:32;101122.31;;;3.07;83.92
75401;BME280;63974;47.538;18.972;2023-03-01T07:26:35;101124.75;;;3.09;84.03
75401;BME280;63974;47.538;18.972;2023-03-01T07:29:38;101118.28;;;3.28;83.45
75401;BME280;63974;47.538;18.972;2023-03-01T07:32:41;101126.72;;;3.18;83.15
75401;BME280;63974;47.538;18.972;2023-03-01T07:35:44;101119.66;;;3.21;83.11
75401;BME280;63974;47.538;18.972;2023-03-01T07:38:47;101121.34;;;2.96;84.44
75401;BME280;63974;47.538;18.972;2023-03-01T07:41:50;101120.66;;;3.06;83.84
75401;BME280;63974;47.538;18.972;2023-03-01T07:44:56;101121.38;;;3.21;83.22
75401;BME280;63974;47.538;18.972;2023-03-01T07:47:59;101118.72;;;3.22;83.37
75401;BME280;63974;47.538;18.972;2023-03-01T07:51:05;101110.59;;;3.28;82.67
75401;BME280;63974;47.538;18.972;2023-03-01T07:54:08;101107.03;;;3.18;83.79
75401;BME280;63974;47.538;18.972;2023-03-01T07:57:11;101118.41;;;3.39;82.89
75401;BME280;63974;47.538;18.972;2023-03-01T08:00:14;101113.97;;;3.54;82.52
75401;BME280;63974;47.538;18.972;2023-03-01T08:03:21;101117.69;;;3.50;82.40
75401;BME280;63974;47.538;18.972;2023-03-01T08:06:24;101120.97;;;3.52;82.47
75401;BME280;63974;47.538;18.972;2023-03-01T08:09:26;101110.50;;;3.42;82.35
75401;BME280;63974;47.538;18.972;2023-03-01T08:12:29;101105.38;;;3.30;83.20
75401;BME280;63974;47.538;18.972;2023-03-01T08:15:32;101109.88;;;3.26;83.29
75401;BME280;63974;47.538;18.972;2023-03-01T08:18:35;101112.16;;;3.43;82.38
75401;BME280;63974;47.538;18.972;2023-03-01T08:21:38;101102.16;;;3.51;81.97
75401;BME280;63974;47.538;18.972;2023-03-01T08:24:41;101099.19;;;3.57;81.56
75401;BME280;63974;47.538;18.972;2023-03-01T08:27:44;101102.56;;;3.70;81.51
75401;BME280;63974;47.538;18.972;2023-03-01T08:30:47;101090.44;;;3.72;81.42
75401;BME280;63974;47.538;18.972;2023-03-01T08:33:51;101085.59;;;3.80;81.02
75401;BME280;63974;47.538;18.972;2023-03-01T08:36:57;101084.13;;;3.89;80.54
75401;BME280;63974;47.538;18.972;2023-03-01T08:40:02;101081.63;;;4.00;79.94
75401;BME280;63974;47.538;18.972;2023-03-01T08:43:06;101080.94;;;3.98;80.08
75401;BME280;63974;47.538;18.972;2023-03-01T08:46:11;101083.38;;;3.99;80.26
75401;BME280;63974;47.538;18.972;2023-03-01T08:49:18;101070.00;;;4.30;79.67
75401;BME280;63974;47.538;18.972;2023-03-01T08:52:21;101070.59;;;4.10;79.80
75401;BME280;63974;47.538;18.972;2023-03-01T08:55:25;101071.91;;;4.39;78.90
75401;BME280;63974;47.538;18.972;2023-03-01T08:58:28;101076.38;;;4.48;78.33
75401;BME280;63974;47.538;18.972;2023-03-01T09:01:31;101071.97;;;4.61;77.81
75401;BME280;63974;47.538;18.972;2023-03-01T09:04:34;101076.50;;;4.46;78.47
75401;BME280;63974;47.538;18.972;2023-03-01T09:07:37;101076.34;;;4.14;78.71
75401;BME280;63974;47.538;18.972;2023-03-01T09:10:40;101060.41;;;4.32;78.67
75401;BME280;63974;47.538;18.972;2023-03-01T09:13:44;101054.28;;;4.45;78.06
75401;BME280;63974;47.538;18.972;2023-03-01T09:16:47;101069.19;;;4.64;78.03
75401;BME280;63974;47.538;18.972;2023-03-01T09:19:50;101076.25;;;4.49;77.80
75401;BME280;63974;47.538;18.972;2023-03-01T09:22:53;101079.06;;;4.46;77.85
75401;BME280;63974;47.538;18.972;2023-03-01T09:25:56;101075.72;;;4.57;77.64
75401;BME280;63974;47.538;18.972;2023-03-01T09:28:59;101069.53;;;4.59;77.08
75401;BME280;63974;47.538;18.972;2023-03-01T09:32:02;101080.84;;;4.57;77.30
75401;BME280;63974;47.538;18.972;2023-03-01T09:35:05;101076.69;;;4.67;77.80
75401;BME280;63974;47.538;18.972;2023-03-01T09:38:08;101069.41;;;4.95;77.11
75401;BME280;63974;47.538;18.972;2023-03-01T09:44:41;101077.25;;;5.05;75.71
75401;BME280;63974;47.538;18.972;2023-03-01T09:47:45;101083.56;;;5.01;75.63
75401;BME280;63974;47.538;18.972;2023-03-01T09:50:50;101072.66;;;4.97;75.53
75401;BME280;63974;47.538;18.972;2023-03-01T09:53:53;101069.41;;;5.06;76.34
75401;BME280;63974;47.538;18.972;2023-03-01T10:00:16;101067.31;;;5.22;75.94
75401;BME280;63974;47.538;18.972;2023-03-01T10:03:44;101058.66;;;5.23;76.22
75401;BME280;63974;47.538;18.972;2023-03-01T10:10:36;101055.25;;;5.12;76.46
75401;BME280;63974;47.538;18.972;2023-03-01T10:14:02;101054.44;;;5.11;75.80
75401;BME280;63974;47.538;18.972;2023-03-01T10:17:33;101047.78;;;5.31;76.29
75401;BME280;63974;47.538;18.972;2023-03-01T10:23:51;101043.78;;;5.16;75.66
75401;BME280;63974;47.538;18.972;2023-03-01T10:26:57;101042.84;;;5.17;75.65
75401;BME280;63974;47.538;18.972;2023-03-01T10:30:38;101050.13;;;5.12;75.96
75401;BME280;63974;47.538;18.972;2023-03-01T10:33:44;101036.19;;;5.36;75.06
75401;BME280;63974;47.538;18.972;2023-03-01T10:36:49;101022.13;;;5.40;75.47
75401;BME280;63974;47.538;18.972;2023-03-01T10:40:09;101019.19;;;5.67;74.70
75401;BME280;63974;47.538;18.972;2023-03-01T10:43:12;101021.84;;;5.76;73.68
75401;BME280;63974;47.538;18.972;2023-03-01T10:49:31;101004.06;;;5.62;74.17
75401;BME280;63974;47.538;18.972;2023-03-01T10:52:40;100999.59;;;5.75;73.18
75401;BME280;63974;47.538;18.972;2023-03-01T10:55:43;100993.22;;;6.01;72.95
75401;BME280;63974;47.538;18.972;2023-03-01T10:59:04;100976.13;;;5.47;73.79
75401;BME280;63974;47.538;18.972;2023-03-01T11:02:20;100972.38;;;5.51;74.52
75401;BME280;63974;47.538;18.972;2023-03-01T11:05:27;100965.19;;;6.08;73.42
75401;BME280;63974;47.538;18.972;2023-03-01T11:08:53;100949.50;;;6.11;71.46
75401;BME280;63974;47.538;18.972;2023-03-01T11:11:59;100955.94;;;5.85;72.48
75401;BME280;63974;47.538;18.972;2023-03-01T11:15:03;100942.56;;;6.11;72.40
75401;BME280;63974;47.538;18.972;2023-03-01T11:18:19;100943.56;;;6.60;70.92
75401;BME280;63974;47.538;18.972;2023-03-01T11:21:25;100963.16;;;6.63;70.74
75401;BME280;63974;47.538;18.972;2023-03-01T11:24:40;100948.53;;;6.53;71.34
75401;BME280;63974;47.538;18.972;2023-03-01T11:27:45;100950.44;;;6.10;73.17
75401;BME280;63974;47.538;18.972;2023-03-01T11:31:04;100951.69;;;6.86;71.62
75401;BME280;63974;47.538;18.972;2023-03-01T11:34:28;100939.75;;;7.24;70.02
75401;BME280;63974;47.538;18.972;2023-03-01T11:41:14;100928.75;;;7.32;68.49
75401;BME280;63974;47.538;18.972;2023-03-01T11:44:21;100922.97;;;7.58;68.60
75401;BME280;63974;47.538;18.972;2023-03-01T11:51:09;100913.88;;;7.64;67.08
75401;BME280;63974;47.538;18.972;2023-03-01T11:57:58;100904.88;;;7.77;66.43
75401;BME280;63974;47.538;18.972;2023-03-01T12:04:36;100907.47;;;7.77;67.59
75401;BME280;63974;47.538;18.972;2023-03-01T12:17:48;100894.78;;;7.27;67.47
75401;BME280;63974;47.538;18.972;2023-03-01T12:24:43;100878.09;;;7.59;67.43
75401;BME280;63974;47.538;18.972;2023-03-01T12:28:02;100874.06;;;7.17;67.88
75401;BME280;63974;47.538;18.972;2023-03-01T12:32:01;100868.78;;;7.00;69.35
75401;BME280;63974;47.538;18.972;2023-03-01T12:35:00;100874.41;;;7.33;69.49
75401;BME280;63974;47.538;18.972;2023-03-01T12:38:21;100864.75;;;7.73;67.31
75401;BME280;63974;47.538;18.972;2023-03-01T12:45:04;100888.75;;;6.68;71.09
75401;BME280;63974;47.538;18.972;2023-03-01T12:48:36;100871.50;;;7.17;68.53
75401;BME280;63974;47.538;18.972;2023-03-01T12:51:53;100865.84;;;6.84;70.09
75401;BME280;63974;47.538;18.972;2023-03-01T12:55:01;100862.84;;;6.49;71.38
75401;BME280;63974;47.538;18.972;2023-03-01T12:58:21;100853.97;;;6.72;70.53
75401;BME280;63974;47.538;18.972;2023-03-01T13:01:51;100853.31;;;6.79;70.10
75401;BME280;63974;47.538;18.972;2023-03-01T13:08:18;100843.84;;;6.50;72.27
75401;BME280;63974;47.538;18.972;2023-03-01T13:11:23;100831.22;;;6.96;70.89
75401;BME280;63974;47.538;18.972;2023-03-01T13:17:40;100821.63;;;7.26;69.28
75401;BME280;63974;47.538;18.972;2023-03-01T13:20:48;100826.34;;;6.83;71.50
75401;BME280;63974;47.538;18.972;2023-03-01T13:23:51;100817.38;;;6.87;70.77
75401;BME280;63974;47.538;18.972;2023-03-01T13:33:45;100820.28;;;7.13;70.55
75401;BME280;63974;47.538;18.972;2023-03-01T13:36:49;100820.41;;;7.21;70.13
75401;BME280;63974;47.538;18.972;2023-03-01T13:39:52;100816.88;;;7.22;70.04
75401;BME280;63974;47.538;18.972;2023-03-01T13:42:56;100815.50;;;7.18;70.09
75401;BME280;63974;47.538;18.972;2023-03-01T13:46:10;100815.78;;;7.15;69.47
75401;BME280;63974;47.538;18.972;2023-03-01T13:49:18;100820.91;;;7.05;68.92
75401;BME280;63974;47.538;18.972;2023-03-01T13:52:40;100814.78;;;6.97;69.99
75401;BME280;63974;47.538;18.972;2023-03-01T13:55:48;100806.81;;;7.00;70.06
75401;BME280;63974;47.538;18.972;2023-03-01T13:59:27;100810.97;;;6.91;69.93
75401;BME280;63974;47.538;18.972;2023-03-01T14:02:22;100802.25;;;6.73;70.14
75401;BME280;63974;47.538;18.972;2023-03-01T14:05:25;100806.66;;;6.92;70.81
75401;BME280;63974;47.538;18.972;2023-03-01T14:08:30;100807.47;;;7.02;70.66
75401;BME280;63974;47.538;18.972;2023-03-01T14:18:12;100782.28;;;6.75;70.49
75401;BME280;63974;47.538;18.972;2023-03-01T14:21:17;100789.19;;;6.75;71.21
75401;BME280;63974;47.538;18.972;2023-03-01T14:24:22;100786.09;;;6.81;70.80
75401;BME280;63974;47.538;18.972;2023-03-01T14:27:35;100777.53;;;6.80;70.88
75401;BME280;63974;47.538;18.972;2023-03-01T14:30:43;100779.44;;;6.78;71.01
75401;BME280;63974;47.538;18.972;2023-03-01T14:33:54;100774.72;;;6.83;70.56
75401;BME280;63974;47.538;18.972;2023-03-01T14:40:35;100772.50;;;6.69;70.36
75401;BME280;63974;47.538;18.972;2023-03-01T14:43:43;100771.31;;;6.83;70.35
75401;BME280;63974;47.538;18.972;2023-03-01T14:46:52;100773.31;;;6.70;69.83
75401;BME280;63974;47.538;18.972;2023-03-01T14:49:59;100769.66;;;6.72;71.05
75401;BME280;63974;47.538;18.972;2023-03-01T14:53:05;100767.06;;;6.63;69.95
75401;BME280;63974;47.538;18.972;2023-03-01T14:56:15;100755.25;;;6.60;70.94
75401;BME280;63974;47.538;18.972;2023-03-01T14:59:22;100755.91;;;6.53;70.52
75401;BME280;63974;47.538;18.972;2023-03-01T15:02:26;100742.28;;;6.42;71.21
75401;BME280;63974;47.538;18.972;2023-03-01T15:05:32;100741.09;;;6.46;71.70
75401;BME280;63974;47.538;18.972;2023-03-01T15:08:36;100749.75;;;6.45;71.63
75401;BME280;63974;47.538;18.972;2023-03-01T15:11:44;100746.19;;;6.36;71.73
75401;BME280;63974;47.538;18.972;2023-03-01T15:14:47;100760.63;;;6.48;71.54
75401;BME280;63974;47.538;18.972;2023-03-01T15:18:15;100746.75;;;6.40;72.15
75401;BME280;63974;47.538;18.972;2023-03-01T15:21:23;100739.56;;;6.43;71.52
75401;BME280;63974;47.538;18.972;2023-03-01T15:24:27;100731.97;;;6.42;72.00
75401;BME280;63974;47.538;18.972;2023-03-01T15:27:31;100735.78;;;6.47;71.41
75401;BME280;63974;47.538;18.972;2023-03-01T15:30:35;100724.38;;;6.40;72.08
75401;BME280;63974;47.538;18.972;2023-03-01T15:33:40;100723.66;;;6.38;71.59
75401;BME280;63974;47.538;18.972;2023-03-01T15:36:51;100741.75;;;6.48;71.39
75401;BME280;63974;47.538;18.972;2023-03-01T15:39:56;100735.38;;;6.42;71.72
75401;BME280;63974;47.538;18.972;2023-03-01T15:43:02;100739.44;;;6.45;71.65
75401;BME280;63974;47.538;18.972;2023-03-01T15:46:05;100728.81;;;6.38;72.18
75401;BME280;63974;47.538;18.972;2023-03-01T15:49:42;100728.81;;;6.38;72.29
75401;BME280;63974;47.538;18.972;2023-03-01T15:52:58;100726.78;;;6.32;72.65
75401;BME280;63974;47.538;18.972;2023-03-01T15:56:01;100723.81;;;6.37;73.03
75401;BME280;63974;47.538;18.972;2023-03-01T15:59:04;100725.94;;;6.32;72.63
75401;BME280;63974;47.538;18.972;2023-03-01T16:02:10;100731.25;;;6.30;72.83
75401;BME280;63974;47.538;18.972;2023-03-01T16:05:21;100725.44;;;6.38;72.59
75401;BME280;63974;47.538;18.972;2023-03-01T16:08:24;100722.88;;;6.38;72.89
75401;BME280;63974;47.538;18.972;2023-03-01T16:11:27;100714.28;;;6.37;72.91
75401;BME280;63974;47.538;18.972;2023-03-01T16:14:31;100712.53;;;6.28;72.98
75401;BME280;63974;47.538;18.972;2023-03-01T16:17:34;100713.72;;;6.24;72.87
75401;BME280;63974;47.538;18.972;2023-03-01T16:20:39;100721.34;;;6.26;73.02
75401;BME280;63974;47.538;18.972;2023-03-01T16:23:43;100714.47;;;6.06;73.68
75401;BME280;63974;47.538;18.972;2023-03-01T16:26:46;100711.84;;;5.96;73.68
75401;BME280;63974;47.538;18.972;2023-03-01T16:29:49;100720.84;;;6.02;73.85
75401;BME280;63974;47.538;18.972;2023-03-01T16:32:52;100728.44;;;6.03;73.80
75401;BME280;63974;47.538;18.972;2023-03-01T16:35:56;100727.34;;;6.06;73.88
75401;BME280;63974;47.538;18.972;2023-03-01T16:38:59;100719.88;;;6.03;73.70
75401;BME280;63974;47.538;18.972;2023-03-01T16:42:05;100724.88;;;5.74;74.39
75401;BME280;63974;47.538;18.972;2023-03-01T16:45:09;100727.50;;;5.63;74.94
75401;BME280;63974;47.538;18.972;2023-03-01T16:48:25;100727.72;;;5.51;75.56
75401;BME280;63974;47.538;18.972;2023-03-01T16:51:28;100729.97;;;5.44;75.92
75401;BME280;63974;47.538;18.972;2023-03-01T16:54:33;100724.75;;;5.35;76.31
75401;BME280;63974;47.538;18.972;2023-03-01T16:57:37;100730.41;;;5.29;76.64
75401;BME280;63974;47.538;18.972;2023-03-01T17:00:43;100727.50;;;5.22;77.16
75401;BME280;63974;47.538;18.972;2023-03-01T17:03:47;100730.09;;;5.22;77.12
75401;BME280;63974;47.538;18.972;2023-03-01T17:06:52;100723.78;;;5.15;77.18
75401;BME280;63974;47.538;18.972;2023-03-01T17:09:55;100736.81;;;5.14;77.31
75401;BME280;63974;47.538;18.972;2023-03-01T17:12:58;100731.56;;;5.04;77.59
75401;BME280;63974;47.538;18.972;2023-03-01T17:16:03;100737.66;;;5.03;77.78
75401;BME280;63974;47.538;18.972;2023-03-01T17:19:07;100733.47;;;4.91;78.33
75401;BME280;63974;47.538;18.972;2023-03-01T17:22:10;100735.25;;;4.91;78.07
75401;BME280;63974;47.538;18.972;2023-03-01T17:25:15;100736.78;;;4.93;78.15
75401;BME280;63974;47.538;18.972;2023-03-01T17:28:18;100742.63;;;4.84;78.25
75401;BME280;63974;47.538;18.972;2023-03-01T17:31:23;100744.63;;;4.81;78.22
75401;BME280;63974;47.538;18.972;2023-03-01T17:34:27;100733.16;;;4.85;77.82
75401;BME280;63974;47.538;18.972;2023-03-01T17:37:30;100732.03;;;4.78;77.97